ホワイトホース の空港の天気 - METARとTAF

ホワイトホース国際空港 ( CYXY / YXY ) - カナダ ユーコン準州ホワイトホース
飛行場実況気象(Metar)
観測時間04/26 21:00 PDT (04/27 04:00 UTC)
風向・風速南 4m/s
視程10km以上
天気現象周辺でしゅう雨
全天の4割程度の雲 雲底高度 2260m
全天の4割程度の雲 雲底高度 7010m
気温7℃
湿度42%
気圧1016hPa
METARCYXY 270400Z 18007KT 40SM VCSH SCT074 SCT230 07/M05 A2991 RMK AC3CI1 SLP160
過去の天気等 Google飛行場航空写真 Wunderground天気予報

過去48時間のMETAR

飛行場予報(TAF)
発表時間: 4/26 16:38 PDT (4/26 23:38 UTC)
予報対象時間: 26日17時 PDT ~ 27日5時 PDT
風向・風速南南東 4m/s
視程10km以上
全天の4割程度の雲 雲底高度 1,830m
全天の8割程度の雲 雲底高度 5,490m
26日17時 PDT ~ 26日22時 PDT に一時的に
視程10km以上
天気現象弱いしゅう雨
全天の8割程度の雲 雲底高度 1,830m
26日22時 PDT から
風向・風速不定 2m/s
視程10km以上
全天の4割程度の雲 雲底高度 1,830m
全天の8割程度の雲 雲底高度 6,100m
TAF CYXY 262338Z 2700/2712 16008KT P6SM SCT060 BKN180
TEMPO 2700/2705 P6SM -SHRA BKN060
FM270500 VRB03KT P6SM SCT060 BKN200 RMK NXT FCST BY 270600Z